Aeroporto :
LOGIN :

Iscrizione | Disclaimer

   EN    FR    IT 

 










Sommario :    VFR   VFR Marginale   IFR   IFR Intensivo   IFR Molto Intensivo
Visibilità : 
Base nubi : 
>= 8 km
>= 3000ft
5 / 8 km
1000 / 3000 ft
1500m / 5 km
500 / 1000 ft
800 / 1500m
200 / 500 ft
< 800m
< 200 ft
Simboli :   Temporali  Nebbia  Neve Forte  Precipitazioni Forti  Vento > 20 kt
SIGMETs :   Varie  Temporali  Ghiacco  Turbolenza  Onda orograficha  Ceneri Vulcaniche






- Altitudine del aeroporto : 231 ft
- Codice IATA : WTN


EGXW - RAF Waddington

ULTIMO METAR :
  • 301550Z 25011KT 9999 -DZ FEW009 SCT018 09/07 Q1016 TEMPO SCT009 RMK WHT TEMPO GRN

METARs OBSOLETI :
  • 301509Z 25014KT 9999 BKN009 SCT060 09/07 Q1016 TEMPO FEW009 RMK GRN TEMPO BLU
  • 301430Z 25015KT 9999 FEW008 SCT080 09/07 Q1017 TEMPO SCT016 RMK BLU TEMPO WHT
  • 301350Z 25012KT 9999 SCT011 BKN110 09/07 Q1017 TEMPO BKN016 RMK GRN TEMPO WHT

TAF AMD TAF EGXW
Valido dal 30 a 15 ore il 01 a 09 ore UTC


301506Z 3015/0109 26014KT 9999 FEW016
TEMPO 3015/3017 26015G25KT
PROB40
TEMPO 3015/3018 BKN016
PROB30
TEMPO 3015/3018 SCT008
PROB30
TEMPO 3017/3020 30015G25KT



MetMap, La meteo Aeronautica in un colpo d'occhio ! - Copyright ORBIFLY Dicembre 2007 - Disclaimer

ORBIFLY MET'MAP TEAM :

Programmazione e sviluppo : Alexandra Zaïnal
Concezione : Baudouin d'Aumeries
Aiuto per la programmazione : Marc-Olivier Méhu
Supporto tecnico e logistico : Manuel Goepfert
Aiuto per la traduzione : Arnaldo La Scala

Contatto : metmap@orbifly.com




FONTI E CREDITI :

   NOAA